Time;durP1;ratioP1;P1;durP2;ratioP2;P2;SDS_P1;SDS_P2;PMS_P1;PMS_P2;Temp;Humidity;BMP_temperature;BMP_pressure;BME280_temperature;BME280_humidity;BME280_pressure;Samples;Min_cycle;Max_cycle;Signal;HPM_P1;HPM_P2
2023/06/22 00:00:54;;;;;;;13.27;12.05;;;18.60;89.30;;;;;;5044965;28;20938;-79
2023/06/22 00:03:22;;;;;;;12.57;11.48;;;18.60;59.10;;;;;;5045028;28;20236;-81
2023/06/22 00:05:48;;;;;;;13.73;12.43;;;18.60;80.90;;;;;;5045052;28;20198;-76
2023/06/22 00:08:14;;;;;;;12.30;11.13;;;18.60;1.00;;;;;;5043960;28;20191;-78
2023/06/22 00:10:41;;;;;;;12.48;11.48;;;18.60;1.00;;;;;;5043008;28;20194;-78
2023/06/22 00:13:08;;;;;;;13.05;11.60;;;18.60;1.00;;;;;;5043186;28;20236;-77
2023/06/22 00:15:34;;;;;;;12.65;11.55;;;18.60;1.00;;;;;;5042401;28;20206;-77
2023/06/22 00:17:59;;;;;;;12.38;11.27;;;18.70;1.00;;;;;;5045340;28;20205;-79
2023/06/22 00:20:29;;;;;;;13.13;12.02;;;18.60;1.00;;;;;;5045435;28;21329;-76
2023/06/22 00:22:56;;;;;;;13.60;12.23;;;18.60;1.00;;;;;;5045659;28;20182;-79
2023/06/22 00:25:22;;;;;;;13.20;11.90;;;18.60;1.00;;;;;;5045432;28;20210;-82
2023/06/22 00:27:53;;;;;;;14.18;12.15;;;18.60;1.00;;;;;;5045140;28;20174;-77
2023/06/22 00:30:19;;;;;;;12.88;11.65;;;18.60;1.00;;;;;;5046167;28;20174;-78
2023/06/22 00:32:45;;;;;;;12.40;11.35;;;18.60;1.00;;;;;;5045683;28;20179;-78
2023/06/22 00:35:12;;;;;;;13.43;11.98;;;18.50;1.00;;;;;;5044932;28;20224;-78
2023/06/22 00:37:42;;;;;;;13.60;12.40;;;18.50;1.00;;;;;;5045199;28;20190;-76
2023/06/22 00:40:11;;;;;;;12.48;11.35;;;18.40;1.00;;;;;;5045727;28;20224;-76
2023/06/22 00:42:37;;;;;;;12.93;11.73;;;18.40;1.00;;;;;;5045112;28;20649;-78
2023/06/22 00:45:03;;;;;;;14.07;12.68;;;18.40;99.90;;;;;;5027343;28;20283;-78
2023/06/22 00:47:28;;;;;;;12.40;11.30;;;18.40;99.90;;;;;;5044712;28;20194;-78
2023/06/22 00:49:54;;;;;;;13.30;12.00;;;18.40;99.90;;;;;;5043485;28;20603;-78
2023/06/22 00:52:27;;;;;;;12.52;11.23;;;18.40;99.90;;;;;;5044653;28;20170;-79
2023/06/22 00:54:53;;;;;;;12.40;11.20;;;18.50;33.00;;;;;;5044784;28;20649;-76
2023/06/22 00:57:19;;;;;;;11.75;10.75;;;18.40;84.20;;;;;;5048421;28;20293;-79
2023/06/22 00:59:47;;;;;;;13.73;12.32;;;18.50;99.90;;;;;;5048969;28;20182;-76
2023/06/22 01:02:13;;;;;;;12.00;11.00;;;18.30;73.60;;;;;;5047523;28;20224;-80
2023/06/22 01:04:39;;;;;;;13.25;12.00;;;18.20;98.00;;;;;;5048791;28;20296;-79
2023/06/22 01:07:31;;;;;;;12.63;11.32;;;18.20;99.90;;;;;;5046790;28;20206;-79
2023/06/22 01:10:08;;;;;;;13.27;11.85;;;18.20;99.90;;;;;;5020374;28;20684;-79
2023/06/22 01:12:43;;;;;;;11.82;10.73;;;18.20;99.90;;;;;;5030159;28;20216;-77
2023/06/22 01:15:15;;;;;;;11.75;10.63;;;18.10;99.90;;;;;;5048789;28;20182;-76
2023/06/22 01:17:42;;;;;;;12.57;11.35;;;18.10;99.90;;;;;;5028235;28;20661;-77
2023/06/22 01:20:11;;;;;;;12.18;11.07;;;17.90;91.10;;;;;;5047950;28;20708;-79
2023/06/22 01:23:25;;;;;;;11.60;10.45;;;17.80;99.90;;;;;;5030691;28;20210;-78
2023/06/22 01:26:02;;;;;;;12.75;11.23;;;17.70;99.90;;;;;;4971712;28;20209;-78
2023/06/22 01:28:42;;;;;;;13.77;10.45;;;17.70;99.90;;;;;;4976154;28;20681;-78
2023/06/22 01:31:10;;;;;;;12.20;10.95;;;17.70;99.90;;;;;;5022700;28;20793;-81
2023/06/22 01:33:39;;;;;;;14.45;11.77;;;17.70;99.90;;;;;;5048456;28;20174;-81
2023/06/22 01:36:06;;;;;;;12.98;11.68;;;17.90;99.90;;;;;;5047560;28;20205;-78
2023/06/22 01:38:34;;;;;;;14.40;11.18;;;17.80;99.70;;;;;;5048658;28;20182;-79
2023/06/22 01:41:01;;;;;;;13.30;10.45;;;17.90;99.90;;;;;;5048095;28;20197;-78
2023/06/22 01:43:27;;;;;;;15.55;11.13;;;17.80;99.90;;;;;;5048130;28;20202;-78
2023/06/22 01:45:54;;;;;;;11.35;10.23;;;17.80;12.30;;;;;;5029764;28;20237;-78
2023/06/22 01:48:21;;;;;;;15.18;11.02;;;17.80;1.00;;;;;;5048334;28;20331;-79
2023/06/22 01:50:47;;;;;;;14.93;10.23;;;17.80;1.00;;;;;;5028692;28;20182;-78
2023/06/22 01:53:13;;;;;;;16.60;11.40;;;17.80;4.00;;;;;;5047423;28;20232;-79
2023/06/22 01:55:39;;;;;;;15.77;11.55;;;17.70;1.00;;;;;;5028385;28;20206;-78
2023/06/22 01:58:05;;;;;;;18.88;11.70;;;17.70;1.00;;;;;;5047790;28;20607;-78
2023/06/22 02:00:38;;;;;;;20.40;11.60;;;17.70;1.00;;;;;;5047737;28;20213;-79
2023/06/22 02:03:31;;;;;;;17.38;11.98;;;17.60;99.90;;;;;;5047623;28;20534;-80
2023/06/22 02:06:04;;;;;;;21.17;11.68;;;17.60;99.90;;;;;;5047147;28;20264;-80
2023/06/22 02:08:35;;;;;;;18.83;11.82;;;17.60;99.90;;;;;;5047798;28;20174;-78
2023/06/22 02:11:02;;;;;;;14.93;11.63;;;17.50;8.50;;;;;;5046209;28;20185;-77
2023/06/22 02:13:28;;;;;;;14.82;11.65;;;17.50;92.80;;;;;;5029393;28;20216;-80
2023/06/22 02:15:54;;;;;;;18.70;11.52;;;17.40;99.90;;;;;;5047164;28;20588;-77
2023/06/22 02:18:20;;;;;;;14.13;10.45;;;17.40;99.90;;;;;;5047539;28;20248;-76
2023/06/22 02:20:46;;;;;;;22.25;11.48;;;17.50;99.90;;;;;;5029613;28;20570;-77
2023/06/22 02:23:11;;;;;;;16.13;11.27;;;17.30;99.90;;;;;;5047508;28;20531;-79
2023/06/22 02:25:37;;;;;;;15.27;10.60;;;17.40;99.90;;;;;;5047357;28;20206;-79
2023/06/22 02:28:03;;;;;;;17.75;10.68;;;17.40;99.90;;;;;;5046518;28;20193;-78
2023/06/22 02:30:29;;;;;;;16.27;10.77;;;17.40;99.90;;;;;;5047379;28;20258;-78
2023/06/22 02:32:58;;;;;;;17.25;11.68;;;17.50;99.90;;;;;;5047406;28;20880;-77
2023/06/22 02:35:26;;;;;;;18.05;12.00;;;17.40;99.90;;;;;;5028468;28;20252;-79
2023/06/22 02:37:51;;;;;;;18.98;12.52;;;17.40;99.90;;;;;;5047017;28;20248;-77
2023/06/22 02:40:17;;;;;;;19.27;11.88;;;17.50;99.90;;;;;;5047366;28;20190;-78
2023/06/22 02:42:43;;;;;;;18.42;11.95;;;17.50;99.90;;;;;;5046844;28;20190;-77
2023/06/22 02:45:09;;;;;;;14.73;11.07;;;17.50;99.90;;;;;;5047355;28;20210;-80
2023/06/22 02:47:34;;;;;;;14.82;11.50;;;17.60;99.90;;;;;;5028405;28;20194;-80
2023/06/22 02:50:01;;;;;;;17.35;12.13;;;17.60;99.90;;;;;;5047361;28;20691;-78
2023/06/22 02:52:26;;;;;;;15.93;11.38;;;17.70;99.90;;;;;;5046913;28;20225;-80
2023/06/22 02:54:52;;;;;;;12.88;10.90;;;17.60;99.90;;;;;;5046833;28;20673;-80
2023/06/22 02:57:18;;;;;;;12.43;11.15;;;17.70;99.90;;;;;;5046290;28;20288;-77
2023/06/22 02:59:43;;;;;;;12.73;11.43;;;17.60;99.90;;;;;;5046792;28;20182;-77
2023/06/22 03:02:09;;;;;;;18.08;11.95;;;17.70;99.90;;;;;;5046709;28;20289;-79
2023/06/22 03:04:35;;;;;;;16.08;11.77;;;17.70;99.90;;;;;;5046721;28;20202;-77
2023/06/22 03:07:01;;;;;;;16.65;12.20;;;17.70;99.90;;;;;;5045838;28;20281;-77
2023/06/22 03:09:28;;;;;;;15.85;11.60;;;17.70;99.90;;;;;;5046585;28;20724;-77
2023/06/22 03:11:54;;;;;;;21.27;12.55;;;18.00;99.90;;;;;;5028808;28;20182;-79
2023/06/22 03:14:20;;;;;;;18.88;12.30;;;17.80;91.60;;;;;;5046598;28;20658;-77
2023/06/22 03:16:46;;;;;;;19.48;12.35;;;17.80;39.40;;;;;;5045685;28;20205;-80
2023/06/22 03:19:12;;;;;;;15.18;10.07;;;17.80;15.90;;;;;;5045978;28;20201;-77
2023/06/22 03:21:40;;;;;;;18.42;11.70;;;17.80;18.60;;;;;;5046400;28;20265;-76
2023/06/22 03:24:07;;;;;;;17.95;11.10;;;17.80;16.10;;;;;;5045824;28;20202;-77
2023/06/22 03:26:34;;;;;;;17.20;11.73;;;17.90;51.60;;;;;;5046011;28;20281;-79
2023/06/22 03:29:00;;;;;;;15.43;10.98;;;17.90;1.00;;;;;;5046378;28;20197;-77
2023/06/22 03:31:26;;;;;;;15.82;11.20;;;18.10;1.00;;;;;;5046195;28;20186;-77
2023/06/22 03:33:51;;;;;;;15.80;10.90;;;18.10;50.90;;;;;;5045814;28;20213;-79
2023/06/22 03:36:21;;;;;;;16.98;11.20;;;18.20;1.00;;;;;;5043281;28;20217;-79
2023/06/22 03:38:48;;;;;;;14.38;10.98;;;18.20;1.00;;;;;;5044702;28;20556;-78
2023/06/22 03:41:13;;;;;;;13.02;11.35;;;18.30;1.00;;;;;;5045747;28;20720;-78
2023/06/22 03:43:39;;;;;;;14.65;11.52;;;18.30;1.00;;;;;;5045678;28;20285;-78
2023/06/22 03:46:05;;;;;;;12.65;10.52;;;18.40;1.00;;;;;;5045420;28;20676;-78
2023/06/22 03:48:31;;;;;;;17.23;10.07;;;18.40;1.00;;;;;;5027105;28;20197;-77
2023/06/22 03:50:58;;;;;;;12.70;10.70;;;18.40;1.00;;;;;;5046726;28;20190;-77
2023/06/22 03:53:24;;;;;;;15.07;10.05;;;18.60;1.00;;;;;;5028493;28;20243;-77
2023/06/22 03:55:51;;;;;;;14.18;9.25;;;18.60;1.00;;;;;;5045984;28;20285;-78
2023/06/22 03:58:18;;;;;;;10.38;9.05;;;18.60;1.00;;;;;;5046547;28;20186;-77
2023/06/22 04:00:48;;;;;;;15.40;10.90;;;18.60;1.00;;;;;;5046270;28;20170;-78
2023/06/22 04:03:14;;;;;;;15.48;9.88;;;18.60;1.00;;;;;;5045853;28;20644;-78
2023/06/22 04:05:40;;;;;;;13.25;9.65;;;18.60;1.00;;;;;;5045444;28;20700;-79
2023/06/22 04:08:06;;;;;;;15.45;10.15;;;18.50;1.00;;;;;;5027241;28;20653;-79
2023/06/22 04:10:32;;;;;;;15.02;10.18;;;18.50;1.00;;;;;;5046023;28;20297;-78
2023/06/22 04:12:58;;;;;;;13.30;9.73;;;18.50;1.00;;;;;;5045534;28;20197;-78
2023/06/22 04:15:23;;;;;;;12.80;10.02;;;18.60;1.00;;;;;;5045191;28;20198;-78
2023/06/22 04:17:49;;;;;;;13.40;9.55;;;18.80;1.00;;;;;;5027106;28;20209;-79
2023/06/22 04:20:14;;;;;;;12.40;10.20;;;18.80;1.00;;;;;;5045515;28;20648;-77
2023/06/22 04:22:40;;;;;;;10.38;9.27;;;18.80;1.00;;;;;;5044993;28;20356;-80
2023/06/22 04:25:07;;;;;;;10.65;9.63;;;19.00;1.00;;;;;;5045401;28;20264;-77
2023/06/22 04:27:37;;;;;;;12.05;10.77;;;19.20;1.00;;;;;;5044781;28;20202;-76
2023/06/22 04:30:03;;;;;;;15.23;10.50;;;19.30;1.00;;;;;;5044263;28;20574;-79
2023/06/22 04:32:29;;;;;;;11.00;9.85;;;19.50;1.00;;;;;;5045109;28;20264;-77
2023/06/22 04:34:55;;;;;;;10.65;9.55;;;19.80;99.90;;;;;;5027348;28;20653;-77
2023/06/22 04:37:23;;;;;;;11.95;10.10;;;20.00;99.90;;;;;;5044485;28;20206;-78
2023/06/22 04:39:49;;;;;;;12.05;9.90;;;20.20;1.00;;;;;;5045356;28;20193;-76
2023/06/22 04:42:15;;;;;;;11.65;9.93;;;20.50;99.90;;;;;;5045203;28;20244;-76
2023/06/22 04:44:42;;;;;;;12.65;9.43;;;20.70;99.90;;;;;;5044926;28;20665;-77
2023/06/22 04:47:10;;;;;;;12.23;9.98;;;20.90;99.90;;;;;;5043446;28;20731;-79
2023/06/22 04:49:37;;;;;;;11.43;10.25;;;21.10;99.90;;;;;;5044791;28;20555;-76
2023/06/22 04:52:03;;;;;;;11.20;10.13;;;21.10;99.90;;;;;;5044970;28;20189;-78
2023/06/22 04:54:29;;;;;;;11.40;9.90;;;21.10;99.90;;;;;;5045366;28;20186;-79
2023/06/22 04:56:58;;;;;;;13.48;10.48;;;21.40;99.90;;;;;;5044205;28;20267;-76
2023/06/22 04:59:30;;;;;;;10.88;9.45;;;21.50;99.90;;;;;;5045089;28;20574;-76
2023/06/22 05:01:57;;;;;;;13.38;10.68;;;21.60;99.90;;;;;;5044699;28;20182;-76
2023/06/22 05:04:24;;;;;;;12.52;10.73;;;21.50;99.90;;;;;;5044190;28;20324;-78
2023/06/22 05:06:50;;;;;;;12.00;9.95;;;21.50;99.90;;;;;;5026348;28;20206;-76
2023/06/22 05:09:17;;;;;;;12.93;10.65;;;21.30;99.90;;;;;;5044486;28;20193;-77
2023/06/22 05:11:43;;;;;;;11.73;10.52;;;21.10;99.90;;;;;;5044835;28;20261;-76
2023/06/22 05:14:09;;;;;;;13.10;10.80;;;21.00;1.00;;;;;;5044970;28;20214;-78
2023/06/22 05:16:34;;;;;;;12.63;11.15;;;20.90;99.90;;;;;;5026314;28;20268;-78
2023/06/22 05:19:02;;;;;;;11.38;10.30;;;20.90;99.90;;;;;;5044593;28;20841;-76
2023/06/22 05:21:28;;;;;;;11.48;10.35;;;20.80;99.90;;;;;;5044971;28;20182;-77
2023/06/22 05:23:54;;;;;;;12.10;10.85;;;20.70;99.90;;;;;;5044613;28;20787;-78
2023/06/22 05:26:21;;;;;;;11.20;10.10;;;20.80;99.90;;;;;;5043933;28;20757;-76
2023/06/22 05:28:47;;;;;;;10.20;9.20;;;20.80;99.90;;;;;;5044438;28;20193;-77
2023/06/22 05:31:15;;;;;;;10.82;9.73;;;20.80;99.90;;;;;;5043529;28;20595;-77
2023/06/22 05:33:43;;;;;;;10.98;9.95;;;20.80;99.90;;;;;;5044284;28;20544;-78
2023/06/22 05:36:09;;;;;;;10.55;9.52;;;20.80;99.90;;;;;;5043752;28;20206;-78
2023/06/22 05:38:36;;;;;;;10.00;9.00;;;20.90;99.90;;;;;;5044707;28;20268;-79
2023/06/22 05:41:01;;;;;;;10.95;9.48;;;20.90;99.90;;;;;;5027332;28;20186;-78
2023/06/22 05:43:27;;;;;;;9.75;8.80;;;20.90;99.90;;;;;;5047908;28;20205;-79
2023/06/22 05:45:53;;;;;;;10.07;9.18;;;20.80;99.90;;;;;;5048266;28;20202;-78
2023/06/22 05:48:18;;;;;;;12.20;9.68;;;20.80;99.90;;;;;;5047752;28;20276;-76
2023/06/22 05:50:44;;;;;;;10.88;9.77;;;20.80;99.90;;;;;;5048281;28;20664;-76
2023/06/22 05:53:09;;;;;;;10.45;9.65;;;20.80;99.90;;;;;;5047708;28;20564;-79
2023/06/22 05:55:49;;;;;;;10.57;9.68;;;20.90;99.90;;;;;;5070254;22;20244;-77
2023/06/22 05:58:15;;;;;;;10.50;9.40;;;20.90;99.90;;;;;;5044825;28;20206;-76
2023/06/22 06:00:43;;;;;;;10.18;9.07;;;20.80;99.90;;;;;;5029502;28;20192;-78
2023/06/22 06:03:09;;;;;;;10.73;8.52;;;20.80;99.90;;;;;;5046212;28;20214;-77
2023/06/22 06:05:35;;;;;;;9.65;8.75;;;20.90;99.90;;;;;;5044127;28;20261;-76
2023/06/22 06:08:02;;;;;;;9.00;8.20;;;21.00;99.90;;;;;;5020431;28;20211;-78
2023/06/22 06:10:29;;;;;;;10.05;9.02;;;20.90;99.90;;;;;;5016178;28;20186;-76
2023/06/22 06:13:05;;;;;;;9.68;8.68;;;21.00;99.90;;;;;;5016537;28;20178;-76
2023/06/22 06:15:34;;;;;;;9.32;8.43;;;21.00;99.90;;;;;;5038824;28;20201;-77
2023/06/22 06:18:00;;;;;;;9.55;8.55;;;21.00;99.90;;;;;;5035266;28;20569;-79
2023/06/22 06:23:19;;;;;;;9.52;8.55;;;21.10;99.90;;;;;;5033819;28;20207;-77
2023/06/22 06:25:44;;;;;;;9.98;9.02;;;21.00;99.90;;;;;;5036418;28;20917;-77
2023/06/22 06:28:10;;;;;;;9.88;8.20;;;21.10;99.90;;;;;;5028581;28;20191;-76
2023/06/22 06:30:37;;;;;;;10.00;7.97;;;21.10;99.90;;;;;;5028275;28;20186;-77
2023/06/22 06:33:04;;;;;;;8.40;7.70;;;21.20;99.90;;;;;;5029513;28;20224;-76
2023/06/22 06:35:37;;;;;;;8.90;8.20;;;21.10;99.90;;;;;;5009804;28;20194;-77
2023/06/22 06:38:03;;;;;;;10.88;9.77;;;21.10;99.90;;;;;;5025280;28;20195;-76
2023/06/22 06:40:28;;;;;;;9.60;8.80;;;21.10;99.90;;;;;;5030867;28;20211;-76
2023/06/22 06:42:54;;;;;;;9.75;8.85;;;21.10;1.00;;;;;;5024614;28;20264;-77
2023/06/22 06:45:22;;;;;;;9.85;8.88;;;21.10;1.00;;;;;;5025482;28;20209;-76
2023/06/22 06:47:58;;;;;;;9.52;8.65;;;21.10;1.00;;;;;;5031853;28;20209;-77
2023/06/22 06:50:36;;;;;;;9.95;9.05;;;21.00;1.00;;;;;;5038427;28;20679;-78
2023/06/22 06:53:01;;;;;;;9.68;8.48;;;21.00;1.00;;;;;;5030732;28;20238;-77
2023/06/22 06:55:28;;;;;;;9.38;8.57;;;21.10;1.00;;;;;;5025039;28;20729;-76
2023/06/22 06:57:54;;;;;;;8.85;8.15;;;21.20;1.00;;;;;;5035834;28;20178;-77
2023/06/22 07:00:21;;;;;;;9.60;8.70;;;21.20;1.00;;;;;;5035793;28;20641;-78
2023/06/22 07:02:48;;;;;;;9.10;8.40;;;21.30;1.00;;;;;;5036200;28;20197;-77
2023/06/22 07:05:13;;;;;;;9.13;8.32;;;21.40;1.00;;;;;;5034223;28;20251;-76
2023/06/22 07:07:41;;;;;;;9.68;8.88;;;21.60;1.00;;;;;;5036912;28;20171;-77
2023/06/22 07:10:07;;;;;;;10.98;10.07;;;21.90;99.90;;;;;;5036732;28;20266;-78
2023/06/22 07:12:33;;;;;;;9.10;8.27;;;21.90;99.90;;;;;;5039643;28;20688;-77
2023/06/22 07:15:10;;;;;;;10.02;9.23;;;22.10;1.00;;;;;;5036045;28;20317;-76
2023/06/22 07:17:36;;;;;;;10.43;9.52;;;22.20;1.00;;;;;;5034982;28;20297;-76
2023/06/22 07:20:07;;;;;;;9.73;8.82;;;22.30;99.90;;;;;;5038156;28;20194;-80
2023/06/22 07:22:33;;;;;;;10.13;9.32;;;22.30;99.90;;;;;;5037099;28;21310;-76
2023/06/22 07:24:58;;;;;;;10.73;9.82;;;22.50;99.90;;;;;;5036402;28;20280;-77
2023/06/22 07:27:24;;;;;;;9.88;9.07;;;22.50;99.90;;;;;;5038185;28;20202;-77
2023/06/22 07:29:50;;;;;;;10.15;9.27;;;22.60;99.90;;;;;;5039493;28;20183;-76
2023/06/22 07:32:16;;;;;;;10.20;9.30;;;22.80;99.90;;;;;;5036898;28;20647;-77
2023/06/22 07:34:41;;;;;;;10.80;9.80;;;23.00;99.90;;;;;;5026805;28;20654;-77
2023/06/22 07:37:07;;;;;;;9.98;9.07;;;23.20;99.90;;;;;;5035530;28;20212;-76
2023/06/22 07:39:33;;;;;;;9.93;9.05;;;23.30;99.90;;;;;;5037352;28;20182;-77
2023/06/22 07:41:58;;;;;;;10.13;9.32;;;23.40;99.90;;;;;;5018192;28;20191;-75
2023/06/22 07:44:24;;;;;;;10.23;9.10;;;23.60;99.90;;;;;;5033862;28;20206;-79
2023/06/22 07:46:50;;;;;;;10.80;10.00;;;23.50;99.90;;;;;;5032785;28;20210;-76
2023/06/22 07:49:16;;;;;;;11.15;10.25;;;23.50;23.30;;;;;;5036706;28;20194;-78
2023/06/22 07:51:42;;;;;;;10.10;9.30;;;23.60;24.30;;;;;;5037655;28;20174;-75
2023/06/22 07:54:09;;;;;;;10.88;10.07;;;23.90;24.20;;;;;;5026331;28;20638;-77
2023/06/22 07:56:36;;;;;;;12.60;11.55;;;24.20;5.90;;;;;;5035231;28;20217;-79
2023/06/22 07:59:03;;;;;;;12.45;11.30;;;24.00;1.00;;;;;;5037289;28;20860;-75
2023/06/22 08:01:29;;;;;;;13.48;12.30;;;24.10;1.00;;;;;;5034250;28;20174;-76
2023/06/22 08:03:56;;;;;;;14.15;12.85;;;24.40;1.00;;;;;;5018965;28;20313;-76
2023/06/22 08:06:22;;;;;;;13.75;12.60;;;24.20;1.00;;;;;;5032681;28;20618;-77
2023/06/22 08:08:48;;;;;;;13.82;12.57;;;24.30;1.00;;;;;;5033545;28;20469;-76
2023/06/22 08:11:14;;;;;;;13.98;12.63;;;24.70;1.00;;;;;;5033952;28;20185;-75
2023/06/22 08:13:40;;;;;;;13.98;12.65;;;24.90;1.00;;;;;;5017129;28;20822;-77
2023/06/22 08:16:07;;;;;;;14.32;13.13;;;25.10;1.00;;;;;;5034571;28;20277;-76
2023/06/22 08:18:33;;;;;;;16.17;14.80;;;25.40;1.00;;;;;;5012138;28;20182;-75
2023/06/22 08:20:58;;;;;;;15.40;13.95;;;25.30;1.00;;;;;;5032861;28;20174;-76
2023/06/22 08:23:24;;;;;;;15.63;14.18;;;25.20;1.00;;;;;;5016282;28;20654;-75
2023/06/22 08:29:28;;;;;;;15.63;14.32;;;25.80;1.00;;;;;;4939864;29;20781;-75
2023/06/22 08:38:04;;;;;;;16.00;14.70;;;26.10;1.00;;;;;;3229007;26;20241;-74
2023/06/22 08:40:29;;;;;;;15.00;13.80;;;26.00;1.00;;;;;;5036478;28;20788;-74
2023/06/22 08:42:55;;;;;;;17.15;15.57;;;26.30;1.00;;;;;;5035711;28;20711;-74
2023/06/22 08:45:21;;;;;;;15.52;14.23;;;26.20;1.00;;;;;;5042856;28;20975;-73
2023/06/22 08:47:46;;;;;;;17.08;15.68;;;26.00;1.00;;;;;;5029514;28;20174;-75
2023/06/22 08:50:13;;;;;;;17.35;15.75;;;26.00;1.00;;;;;;5027746;28;20570;-74
2023/06/22 08:52:43;;;;;;;15.88;14.55;;;26.00;1.00;;;;;;5036731;28;20521;-73
2023/06/22 08:55:10;;;;;;;16.38;15.07;;;26.20;1.00;;;;;;5029480;28;20251;-76
2023/06/22 08:57:39;;;;;;;16.95;15.57;;;26.10;1.00;;;;;;5035414;28;20198;-73
2023/06/22 09:00:11;;;;;;;15.23;14.02;;;26.10;1.00;;;;;;5033959;28;20215;-74
2023/06/22 09:02:37;;;;;;;16.00;14.70;;;26.00;1.00;;;;;;5031355;28;20269;-74
2023/06/22 09:05:03;;;;;;;14.98;13.75;;;26.00;1.00;;;;;;5036500;28;20560;-74
2023/06/22 09:07:29;;;;;;;16.00;14.60;;;26.20;1.00;;;;;;5035714;28;20194;-73
2023/06/22 09:09:55;;;;;;;15.73;14.55;;;26.20;1.00;;;;;;5028794;28;20660;-76
2023/06/22 09:12:24;;;;;;;15.63;14.43;;;26.40;1.00;;;;;;5035346;28;20210;-73
2023/06/22 09:14:50;;;;;;;15.43;14.20;;;26.40;1.00;;;;;;5034355;28;20638;-75
2023/06/22 09:17:15;;;;;;;14.65;13.45;;;26.10;1.00;;;;;;5035261;28;20198;-75
2023/06/22 09:19:41;;;;;;;14.57;13.48;;;26.10;1.00;;;;;;5038964;28;20178;-75
2023/06/22 09:22:06;;;;;;;15.85;14.63;;;26.10;1.00;;;;;;5037272;28;20186;-74
2023/06/22 09:24:32;;;;;;;15.95;14.68;;;25.80;1.00;;;;;;5038354;28;20191;-75
2023/06/22 09:26:58;;;;;;;15.30;14.07;;;25.80;1.00;;;;;;5037172;28;20205;-74
2023/06/22 09:29:25;;;;;;;14.88;13.57;;;26.20;1.00;;;;;;5038444;28;20907;-77
2023/06/22 09:31:53;;;;;;;14.90;13.60;;;26.50;1.00;;;;;;5040087;28;20218;-74
2023/06/22 09:34:20;;;;;;;15.10;13.82;;;26.90;1.00;;;;;;5037304;28;20633;-76
2023/06/22 09:36:49;;;;;;;15.35;14.05;;;27.00;1.00;;;;;;5037744;28;20199;-75
2023/06/22 09:39:15;;;;;;;15.00;13.77;;;26.80;1.00;;;;;;5037226;28;20205;-74
2023/06/22 09:41:40;;;;;;;15.30;14.07;;;26.70;1.00;;;;;;5036994;28;20650;-74
2023/06/22 09:44:06;;;;;;;14.35;13.25;;;26.50;1.00;;;;;;5039478;28;20424;-75
2023/06/22 09:46:32;;;;;;;14.80;13.50;;;26.30;1.00;;;;;;5037974;28;20270;-75
2023/06/22 09:48:57;;;;;;;15.82;14.52;;;26.30;1.00;;;;;;5037541;28;20559;-73
2023/06/22 09:51:23;;;;;;;16.33;14.93;;;26.40;1.00;;;;;;5039359;28;20190;-76
2023/06/22 09:53:53;;;;;;;14.95;13.85;;;26.30;1.00;;;;;;5038547;28;20174;-74
2023/06/22 09:56:19;;;;;;;17.60;15.30;;;26.40;1.00;;;;;;5038364;28;20191;-77
2023/06/22 09:58:46;;;;;;;16.60;15.10;;;26.40;1.00;;;;;;5041195;28;20312;-74
2023/06/22 10:01:15;;;;;;;15.93;14.63;;;26.60;1.00;;;;;;5038322;28;20187;-73
2023/06/22 10:03:43;;;;;;;15.05;13.85;;;26.60;1.00;;;;;;5038896;28;20178;-78
2023/06/22 10:06:09;;;;;;;15.50;14.00;;;26.80;1.00;;;;;;5038770;28;20237;-75
2023/06/22 10:08:35;;;;;;;13.90;12.48;;;26.90;1.00;;;;;;5036147;28;20277;-75
2023/06/22 10:11:01;;;;;;;15.23;13.75;;;27.10;1.00;;;;;;5019414;28;20198;-74
2023/06/22 10:13:27;;;;;;;14.15;13.05;;;27.20;1.00;;;;;;5039734;28;20530;-76
2023/06/22 10:15:53;;;;;;;14.57;13.48;;;27.10;1.00;;;;;;5019296;28;20229;-75
2023/06/22 10:18:18;;;;;;;15.00;13.90;;;27.00;1.00;;;;;;5037227;28;20191;-75
2023/06/22 10:20:48;;;;;;;15.30;13.93;;;27.40;1.00;;;;;;5036506;28;20175;-74
2023/06/22 10:23:13;;;;;;;14.60;13.27;;;27.70;1.00;;;;;;5038800;28;20206;-73
2023/06/22 10:25:39;;;;;;;12.90;11.90;;;27.80;1.00;;;;;;5034916;28;20215;-74
2023/06/22 10:28:04;;;;;;;12.85;11.85;;;28.10;1.00;;;;;;5032925;28;20683;-74
2023/06/22 10:30:30;;;;;;;13.23;12.23;;;28.20;1.00;;;;;;5036029;28;20289;-75
2023/06/22 10:32:56;;;;;;;12.95;11.75;;;28.40;1.00;;;;;;5037082;28;20681;-75
2023/06/22 10:35:21;;;;;;;13.23;12.13;;;28.50;1.00;;;;;;5021247;28;20537;-76
2023/06/22 10:37:47;;;;;;;13.43;12.23;;;28.50;1.00;;;;;;5033217;28;20681;-75
2023/06/22 10:40:14;;;;;;;13.77;12.50;;;28.60;1.00;;;;;;5018295;28;20193;-74
2023/06/22 10:42:41;;;;;;;13.25;12.18;;;28.50;1.00;;;;;;5036700;28;20260;-75
2023/06/22 10:45:08;;;;;;;13.20;11.98;;;28.60;1.00;;;;;;5036790;28;20204;-75
2023/06/22 10:47:34;;;;;;;12.52;11.52;;;29.10;1.00;;;;;;5037026;28;20202;-75
2023/06/22 10:49:59;;;;;;;12.35;11.45;;;29.30;1.00;;;;;;5032318;28;20537;-75
2023/06/22 10:52:25;;;;;;;13.25;12.18;;;29.20;1.00;;;;;;5034955;28;20193;-74
2023/06/22 10:54:52;;;;;;;13.48;12.38;;;29.20;1.00;;;;;;5031461;28;20179;-74
2023/06/22 10:57:18;;;;;;;12.20;11.27;;;28.80;1.00;;;;;;5036256;28;20209;-75
2023/06/22 10:59:43;;;;;;;13.00;11.73;;;28.70;1.00;;;;;;5033737;28;20183;-74
2023/06/22 11:02:09;;;;;;;11.90;11.00;;;28.40;1.00;;;;;;5037701;28;20699;-75
2023/06/22 11:04:35;;;;;;;11.82;10.95;;;28.50;1.00;;;;;;5032961;28;20229;-75
2023/06/22 11:07:01;;;;;;;12.55;11.48;;;28.20;1.00;;;;;;5040534;28;20232;-72
2023/06/22 11:09:26;;;;;;;11.80;10.85;;;28.20;1.00;;;;;;5034637;28;20209;-74
2023/06/22 11:11:55;;;;;;;11.68;10.57;;;28.50;1.00;;;;;;5041085;28;20760;-73
2023/06/22 11:14:22;;;;;;;11.52;10.63;;;28.60;1.00;;;;;;5035293;28;20217;-73
2023/06/22 11:16:47;;;;;;;10.88;9.90;;;28.40;1.00;;;;;;5034718;28;20281;-73
2023/06/22 11:19:13;;;;;;;10.18;9.38;;;28.30;1.00;;;;;;5034342;28;20273;-74
2023/06/22 11:21:39;;;;;;;10.95;9.95;;;28.20;1.00;;;;;;5030671;28;20199;-74
2023/06/22 11:24:05;;;;;;;11.80;10.70;;;28.10;1.00;;;;;;5032653;28;20248;-74
2023/06/22 11:26:31;;;;;;;10.68;9.77;;;27.90;1.00;;;;;;5035313;28;20358;-74
2023/06/22 11:28:57;;;;;;;11.63;10.25;;;28.00;1.00;;;;;;5031135;28;20175;-75
2023/06/22 11:31:24;;;;;;;11.02;10.02;;;28.30;1.00;;;;;;5030450;28;20179;-76
2023/06/22 11:33:49;;;;;;;10.82;10.02;;;28.50;1.00;;;;;;5035547;28;20174;-75
2023/06/22 11:36:15;;;;;;;10.93;10.13;;;28.70;1.00;;;;;;5036656;28;21193;-77
2023/06/22 11:38:42;;;;;;;10.80;9.90;;;29.00;1.00;;;;;;5033987;28;20194;-75
2023/06/22 11:41:08;;;;;;;11.40;10.50;;;29.10;1.00;;;;;;5033769;28;20261;-75
2023/06/22 11:43:34;;;;;;;12.07;10.98;;;29.10;1.00;;;;;;5032104;28;20520;-74
2023/06/22 11:46:02;;;;;;;11.70;10.90;;;29.00;1.00;;;;;;5035909;28;20272;-74
2023/06/22 11:48:27;;;;;;;11.82;10.93;;;29.10;1.00;;;;;;5033844;28;20174;-75
2023/06/22 11:50:54;;;;;;;11.27;10.35;;;29.20;1.00;;;;;;5027468;28;20665;-74
2023/06/22 11:53:21;;;;;;;10.80;10.00;;;29.50;1.00;;;;;;5031234;28;20270;-74
2023/06/22 11:55:47;;;;;;;12.30;10.00;;;29.60;1.00;;;;;;5038538;28;20272;-73
2023/06/22 11:58:13;;;;;;;10.43;9.63;;;29.30;1.00;;;;;;5028409;28;20187;-74
2023/06/22 12:00:38;;;;;;;10.02;9.15;;;29.00;1.00;;;;;;5035888;28;20880;-73
2023/06/22 12:03:04;;;;;;;11.52;10.43;;;29.10;1.00;;;;;;5036451;28;20186;-74
2023/06/22 12:05:30;;;;;;;12.18;11.18;;;29.00;1.00;;;;;;5035367;28;20201;-74
2023/06/22 12:07:56;;;;;;;11.13;10.23;;;28.90;1.00;;;;;;5028776;28;20183;-73
2023/06/22 12:10:22;;;;;;;11.00;10.02;;;29.00;1.00;;;;;;5036069;28;20181;-74
2023/06/22 12:12:48;;;;;;;11.82;10.93;;;29.10;1.00;;;;;;5033341;28;20182;-75
2023/06/22 12:15:14;;;;;;;11.50;10.52;;;29.00;1.00;;;;;;5035057;28;21111;-73
2023/06/22 12:17:40;;;;;;;10.57;9.88;;;28.90;1.00;;;;;;5032182;28;20325;-74
2023/06/22 12:20:07;;;;;;;10.88;9.98;;;29.00;1.00;;;;;;5035519;28;20592;-74
2023/06/22 12:22:33;;;;;;;10.77;9.88;;;29.00;1.00;;;;;;5036205;28;20186;-73
2023/06/22 12:24:59;;;;;;;10.35;9.45;;;29.00;1.00;;;;;;5031674;28;20194;-72
2023/06/22 12:27:25;;;;;;;9.93;9.23;;;29.20;1.00;;;;;;5033744;28;20217;-74
2023/06/22 12:29:51;;;;;;;10.13;9.23;;;29.40;1.00;;;;;;5033396;28;20186;-73
2023/06/22 12:32:17;;;;;;;9.73;8.98;;;29.20;1.00;;;;;;5034586;28;20270;-74
2023/06/22 12:34:44;;;;;;;9.88;9.10;;;29.10;1.00;;;;;;5031287;28;20174;-78
2023/06/22 12:37:09;;;;;;;9.98;9.07;;;29.30;1.00;;;;;;5029316;28;20304;-72
2023/06/22 12:39:35;;;;;;;10.20;9.45;;;29.40;1.00;;;;;;5031323;28;20289;-73
2023/06/22 12:42:01;;;;;;;10.32;9.52;;;29.30;1.00;;;;;;5033490;28;20197;-74
2023/06/22 12:44:27;;;;;;;11.35;10.35;;;29.30;1.00;;;;;;5031162;28;20306;-73
2023/06/22 12:46:52;;;;;;;10.43;9.52;;;29.40;1.00;;;;;;5029626;28;20253;-74